createdAt,value
2017-10-18T00:00:26.046Z,27.87
2017-10-18T00:02:53.603Z,28.30
2017-10-18T00:05:21.175Z,25.83
2017-10-18T00:07:48.727Z,26.07
2017-10-18T00:10:16.307Z,26.60
2017-10-18T00:12:44.608Z,29.33
2017-10-18T00:15:12.132Z,28.00
2017-10-18T00:17:39.677Z,28.10
2017-10-18T00:20:07.195Z,27.37
2017-10-18T00:22:34.720Z,29.00
2017-10-18T00:25:03.007Z,28.57
2017-10-18T00:27:31.402Z,28.80
2017-10-18T00:29:58.939Z,26.87
2017-10-18T00:32:27.255Z,27.43
2017-10-18T00:34:54.791Z,29.93
2017-10-18T00:37:23.116Z,28.53
2017-10-18T00:39:50.641Z,28.77
2017-10-18T00:42:18.167Z,28.40
2017-10-18T00:44:45.682Z,28.17
2017-10-18T00:47:13.230Z,30.33
2017-10-18T00:49:40.751Z,29.00
2017-10-18T00:52:08.311Z,29.60
2017-10-18T00:54:35.883Z,27.90
2017-10-18T00:57:04.192Z,28.53
2017-10-18T00:59:31.703Z,30.43
2017-10-18T01:02:00.075Z,28.00
2017-10-18T01:04:27.623Z,29.20
2017-10-18T01:06:55.153Z,27.97
2017-10-18T01:09:22.722Z,27.40
2017-10-18T01:11:50.234Z,28.07
2017-10-18T01:14:18.656Z,26.47
2017-10-18T01:16:46.187Z,28.40
2017-10-18T01:19:14.515Z,26.63
2017-10-18T01:21:42.124Z,25.70
2017-10-18T01:24:10.431Z,27.73
2017-10-18T01:26:38.026Z,28.60
2017-10-18T01:29:05.637Z,24.97
2017-10-18T01:31:33.172Z,27.60
2017-10-18T01:34:00.703Z,26.30
2017-10-18T01:36:28.218Z,26.93
2017-10-18T01:38:55.745Z,26.07
2017-10-18T01:41:24.275Z,26.37
2017-10-18T01:43:52.144Z,26.67
2017-10-18T01:46:20.111Z,27.17
2017-10-18T01:48:47.971Z,28.70
2017-10-18T01:51:15.927Z,31.47
2017-10-18T01:53:45.496Z,27.20
2017-10-18T01:56:14.758Z,26.70
2017-10-18T01:58:42.731Z,27.10
2017-10-18T02:01:10.670Z,26.90
2017-10-18T02:03:39.180Z,29.80
2017-10-18T02:06:06.946Z,30.73
2017-10-18T02:08:35.119Z,27.30
2017-10-18T02:11:02.882Z,27.20
2017-10-18T02:13:30.855Z,25.80
2017-10-18T02:15:58.610Z,29.30
2017-10-18T02:21:25.356Z,26.80
2017-10-18T02:23:54.048Z,24.80
2017-10-18T02:26:22.625Z,28.43
2017-10-18T02:28:51.538Z,25.53
2017-10-18T02:31:19.360Z,26.70
2017-10-18T02:33:46.979Z,24.67
2017-10-18T02:36:17.779Z,26.10
2017-10-18T02:38:46.298Z,25.23
2017-10-18T02:41:13.984Z,24.87
2017-10-18T02:43:41.633Z,25.60
2017-10-18T02:46:09.374Z,26.37
2017-10-18T02:48:37.051Z,26.03
2017-10-18T02:51:04.708Z,25.07
2017-10-18T02:53:32.340Z,25.53
2017-10-18T02:56:00.688Z,25.43
2017-10-18T02:58:28.421Z,25.70
2017-10-18T03:00:56.186Z,26.10
2017-10-18T03:03:23.901Z,25.97
2017-10-18T03:05:51.612Z,26.57
2017-10-18T03:08:19.253Z,24.07
2017-10-18T03:10:47.616Z,24.57
2017-10-18T03:13:16.131Z,24.83
2017-10-18T03:15:43.775Z,24.00
2017-10-18T03:18:12.528Z,25.40
2017-10-18T03:20:40.335Z,24.73
2017-10-18T03:23:09.148Z,23.70
2017-10-18T03:25:36.830Z,23.97
2017-10-18T03:28:04.372Z,22.47
2017-10-18T03:30:31.909Z,23.00
2017-10-18T03:33:00.205Z,24.77
2017-10-18T03:35:27.768Z,24.67
2017-10-18T03:37:55.275Z,25.07
2017-10-18T03:40:22.803Z,27.93
2017-10-18T03:42:50.355Z,28.13
2017-10-18T03:45:17.880Z,26.33
2017-10-18T03:47:46.156Z,26.30
2017-10-18T03:50:14.487Z,28.37
2017-10-18T03:52:42.039Z,30.17
2017-10-18T03:55:09.551Z,26.67
2017-10-18T03:57:37.062Z,27.00
2017-10-18T04:00:04.571Z,30.30
2017-10-18T04:02:32.156Z,25.93
2017-10-18T04:04:59.722Z,29.03
2017-10-18T04:07:27.236Z,26.60
2017-10-18T04:09:56.574Z,28.67
2017-10-18T04:12:25.010Z,28.60
2017-10-18T04:14:52.576Z,26.13
2017-10-18T04:17:20.127Z,26.77
2017-10-18T04:19:47.639Z,26.10
2017-10-18T04:22:15.968Z,29.37
2017-10-18T04:24:43.492Z,29.80
2017-10-18T04:27:11.153Z,29.97
2017-10-18T04:29:38.755Z,28.57
2017-10-18T04:32:06.331Z,29.10
2017-10-18T04:34:33.930Z,28.77
2017-10-18T04:37:01.503Z,29.40
2017-10-18T04:39:29.019Z,29.67
2017-10-18T04:41:56.555Z,27.70
2017-10-18T04:44:24.092Z,26.40
2017-10-18T04:46:51.627Z,28.10
2017-10-18T04:49:19.165Z,27.60
2017-10-18T04:51:47.479Z,27.63
2017-10-18T04:54:15.035Z,25.77
2017-10-18T04:56:42.592Z,25.37
2017-10-18T04:59:10.139Z,25.90
2017-10-18T05:01:38.415Z,27.30
2017-10-18T05:04:06.719Z,25.13
2017-10-18T05:06:34.379Z,29.93
2017-10-18T05:09:01.927Z,28.27
2017-10-18T05:11:29.509Z,27.23
2017-10-18T05:13:57.032Z,27.07
2017-10-18T05:16:25.343Z,25.67
2017-10-18T05:18:52.893Z,24.70
2017-10-18T05:21:20.563Z,27.30
2017-10-18T05:23:48.132Z,26.47
2017-10-18T05:26:15.657Z,25.63
2017-10-18T05:28:43.943Z,24.60
2017-10-18T05:31:12.240Z,25.10
2017-10-18T05:33:39.800Z,24.03
2017-10-18T05:36:07.354Z,24.77
2017-10-18T05:38:34.870Z,26.67
2017-10-18T05:41:03.966Z,24.47
2017-10-18T05:43:31.479Z,26.83
2017-10-18T05:45:59.131Z,27.00
2017-10-18T05:48:26.660Z,26.50
2017-10-18T05:50:54.204Z,28.20
2017-10-18T05:53:21.710Z,28.37
2017-10-18T05:55:49.314Z,27.80
2017-10-18T05:58:16.934Z,28.83
2017-10-18T06:00:44.442Z,27.43
2017-10-18T06:03:11.953Z,27.27
2017-10-18T06:05:39.462Z,26.40
2017-10-18T06:08:06.986Z,25.20
2017-10-18T06:10:34.495Z,25.80
2017-10-18T06:13:02.100Z,25.50
2017-10-18T06:15:29.606Z,26.77
2017-10-18T06:17:57.171Z,25.60
2017-10-18T06:20:26.188Z,28.07
2017-10-18T06:22:54.487Z,25.87
2017-10-18T06:25:22.010Z,23.87
2017-10-18T06:27:50.339Z,26.00
2017-10-18T06:30:17.859Z,24.07
2017-10-18T06:32:46.138Z,24.73
2017-10-18T06:35:14.441Z,24.40
2017-10-18T06:37:41.983Z,23.27
2017-10-18T06:40:09.501Z,22.00
2017-10-18T06:42:37.018Z,22.40
2017-10-18T06:45:04.588Z,21.70
2017-10-18T06:47:32.139Z,22.40
2017-10-18T06:49:59.698Z,21.17
2017-10-18T06:52:27.213Z,19.13
2017-10-18T06:54:54.751Z,19.57
2017-10-18T06:57:22.292Z,19.00
2017-10-18T06:59:49.823Z,19.23
2017-10-18T07:02:18.119Z,17.27
2017-10-18T07:04:45.646Z,18.00
2017-10-18T07:07:13.156Z,19.93
2017-10-18T07:09:40.682Z,18.57
2017-10-18T07:12:08.963Z,18.73
2017-10-18T07:14:37.264Z,18.00
2017-10-18T07:17:05.212Z,21.07
2017-10-18T07:19:33.491Z,21.33
2017-10-18T07:22:01.766Z,19.80
2017-10-18T07:24:30.206Z,20.73
2017-10-18T07:26:57.763Z,22.80
2017-10-18T07:29:25.270Z,22.23
2017-10-18T07:31:53.591Z,25.60
2017-10-18T07:34:21.163Z,23.20
2017-10-18T07:36:48.687Z,26.23
2017-10-18T07:39:16.276Z,24.97
2017-10-18T07:41:43.837Z,26.47
2017-10-18T07:44:11.409Z,26.37
2017-10-18T07:46:38.919Z,24.87
2017-10-18T07:49:06.440Z,28.20
2017-10-18T07:51:35.486Z,32.80
2017-10-18T07:54:03.096Z,35.30
2017-10-18T07:56:31.535Z,32.50
2017-10-18T07:58:59.063Z,35.10
2017-10-18T08:01:27.360Z,32.30
2017-10-18T08:03:54.925Z,33.07
2017-10-18T08:06:22.448Z,32.37
2017-10-18T08:08:50.042Z,32.47
2017-10-18T08:11:17.603Z,31.80
2017-10-18T08:13:45.160Z,31.13
2017-10-18T08:16:12.716Z,31.23
2017-10-18T08:18:40.292Z,30.67
2017-10-18T08:21:07.826Z,30.20
2017-10-18T08:23:36.104Z,32.07
2017-10-18T08:26:04.410Z,31.07
2017-10-18T08:28:31.963Z,31.73
2017-10-18T08:30:59.522Z,30.30
2017-10-18T08:33:27.068Z,30.83
2017-10-18T08:35:55.348Z,29.90
2017-10-18T08:38:23.632Z,31.77
2017-10-18T08:40:51.154Z,31.53
2017-10-18T08:43:18.779Z,33.10
2017-10-18T08:45:46.302Z,33.10
2017-10-18T08:48:14.586Z,34.60
2017-10-18T08:50:42.155Z,33.70
2017-10-18T08:53:09.719Z,35.90
2017-10-18T08:55:37.231Z,36.17
2017-10-18T08:58:04.750Z,37.83
2017-10-18T09:00:32.256Z,36.80
2017-10-18T09:02:59.795Z,39.20
2017-10-18T09:05:27.326Z,39.70
2017-10-18T09:07:54.874Z,40.17
2017-10-18T09:10:22.451Z,40.80
2017-10-18T09:12:49.960Z,41.40
2017-10-18T09:15:17.543Z,42.23
2017-10-18T09:17:45.838Z,42.00
2017-10-18T09:20:13.399Z,42.27
2017-10-18T09:22:40.963Z,42.80
2017-10-18T09:25:08.522Z,43.50
2017-10-18T09:27:36.075Z,41.97
2017-10-18T09:30:03.592Z,42.80
2017-10-18T09:32:31.904Z,42.70
2017-10-18T09:35:00.184Z,40.50
2017-10-18T09:37:28.467Z,40.77
2017-10-18T09:39:56.016Z,41.33
2017-10-18T09:42:24.347Z,44.90
2017-10-18T09:44:51.863Z,43.87
2017-10-18T09:47:20.151Z,42.63
2017-10-18T09:49:47.669Z,40.77
2017-10-18T09:52:15.170Z,39.70
2017-10-18T09:54:42.685Z,42.73
2017-10-18T09:57:10.200Z,39.37
2017-10-18T09:59:37.751Z,41.63
2017-10-18T10:02:05.294Z,40.70
2017-10-18T10:04:33.586Z,42.23
2017-10-18T10:07:01.093Z,43.33
2017-10-18T10:09:28.716Z,45.17
2017-10-18T10:11:56.263Z,43.17
2017-10-18T10:14:24.674Z,44.73
2017-10-18T10:16:52.204Z,46.60
2017-10-18T10:19:19.766Z,47.17
2017-10-18T10:21:47.327Z,47.20
2017-10-18T10:24:14.891Z,43.13
2017-10-18T10:26:42.451Z,46.70
2017-10-18T10:29:09.978Z,42.20
2017-10-18T10:31:37.499Z,42.47
2017-10-18T10:34:05.131Z,42.73
2017-10-18T10:36:32.655Z,44.80
2017-10-18T10:39:00.255Z,44.47
2017-10-18T10:41:27.820Z,43.53
2017-10-18T10:43:55.374Z,42.80
2017-10-18T10:46:22.885Z,43.03
2017-10-18T10:48:50.425Z,42.63
2017-10-18T10:51:17.954Z,41.00
2017-10-18T10:53:45.523Z,43.27
2017-10-18T10:56:13.092Z,44.23
2017-10-18T10:58:40.605Z,43.10
2017-10-18T11:01:08.142Z,44.83
2017-10-18T11:03:35.757Z,43.50
2017-10-18T11:06:03.302Z,48.03
2017-10-18T11:08:31.603Z,46.20
2017-10-18T11:10:59.260Z,46.60
2017-10-18T11:13:26.775Z,43.47
2017-10-18T11:15:54.391Z,43.30
2017-10-18T11:18:22.662Z,44.80
2017-10-18T11:20:50.204Z,43.00
2017-10-18T11:23:18.483Z,43.43
2017-10-18T11:25:46.794Z,40.17
2017-10-18T11:28:14.316Z,42.50
2017-10-18T11:30:42.595Z,41.60
2017-10-18T11:33:10.887Z,41.00
2017-10-18T11:35:38.402Z,43.87
2017-10-18T11:38:05.919Z,41.37
2017-10-18T11:40:33.470Z,42.03
2017-10-18T11:43:01.030Z,40.30
2017-10-18T11:45:28.586Z,40.37
2017-10-18T11:47:56.120Z,39.47
2017-10-18T11:50:23.710Z,38.80
2017-10-18T11:52:51.283Z,41.00
2017-10-18T11:55:18.838Z,41.90
2017-10-18T11:57:46.357Z,42.73
2017-10-18T12:00:13.875Z,42.70
2017-10-18T12:02:41.531Z,41.90
2017-10-18T12:05:09.050Z,40.63
2017-10-18T12:07:37.352Z,40.83
2017-10-18T12:10:05.728Z,38.80
2017-10-18T12:12:33.251Z,41.50
2017-10-18T12:15:00.767Z,44.20
2017-10-18T12:17:28.278Z,52.97
2017-10-18T12:19:55.875Z,49.60
2017-10-18T12:22:23.483Z,49.93
2017-10-18T12:24:51.107Z,53.40
2017-10-18T12:27:18.619Z,52.27
2017-10-18T12:29:46.156Z,55.97
2017-10-18T12:32:13.671Z,58.97
2017-10-18T12:34:41.972Z,57.10
2017-10-18T12:37:09.487Z,55.87
2017-10-18T12:39:37.024Z,54.30
2017-10-18T12:42:04.536Z,53.70
2017-10-18T12:44:32.107Z,50.93
2017-10-18T12:46:59.626Z,50.50
2017-10-18T12:49:27.135Z,50.97
2017-10-18T12:51:54.714Z,52.13
2017-10-18T12:54:22.236Z,49.90
2017-10-18T12:56:49.795Z,48.47
2017-10-18T12:59:17.362Z,47.50
2017-10-18T13:01:44.911Z,45.23
2017-10-18T13:04:13.194Z,49.07
2017-10-18T13:06:40.737Z,44.50
2017-10-18T13:09:09.055Z,45.73
2017-10-18T13:11:36.615Z,48.00
2017-10-18T13:14:04.134Z,46.90
2017-10-18T13:16:32.419Z,51.53
2017-10-18T13:19:00.720Z,51.20
2017-10-18T13:21:28.231Z,51.53
2017-10-18T13:23:55.833Z,47.17
2017-10-18T13:26:23.347Z,48.30
2017-10-18T13:28:50.855Z,43.90
2017-10-18T13:31:18.413Z,42.87
2017-10-18T13:33:45.926Z,41.87
2017-10-18T13:36:13.543Z,44.83
2017-10-18T13:38:41.100Z,42.60
2017-10-18T13:41:08.629Z,41.20
2017-10-18T13:43:36.218Z,40.17
2017-10-18T13:46:03.740Z,39.30
2017-10-18T13:48:31.264Z,38.37
2017-10-18T13:50:58.780Z,39.57
2017-10-18T13:53:27.079Z,38.20
2017-10-18T13:55:54.647Z,36.07
2017-10-18T13:58:22.168Z,34.33
2017-10-18T14:00:49.774Z,36.87
2017-10-18T14:03:17.285Z,35.93
2017-10-18T14:05:44.797Z,38.00
2017-10-18T14:08:12.318Z,36.50
2017-10-18T14:10:40.608Z,36.87
2017-10-18T14:13:08.908Z,35.10
2017-10-18T14:15:36.426Z,33.80
2017-10-18T14:18:03.953Z,35.67
2017-10-18T14:20:31.500Z,34.07
2017-10-18T14:22:59.042Z,32.73
2017-10-18T14:25:26.600Z,32.73
2017-10-18T14:27:54.134Z,33.90
2017-10-18T14:30:22.472Z,31.37
2017-10-18T14:32:49.990Z,31.67
2017-10-18T14:35:17.570Z,32.67
2017-10-18T14:37:45.122Z,31.77
2017-10-18T14:40:12.682Z,31.83
2017-10-18T14:42:40.255Z,34.90
2017-10-18T14:45:07.760Z,31.80
2017-10-18T14:47:35.318Z,34.00
2017-10-18T14:50:02.928Z,30.50
2017-10-18T14:52:30.435Z,33.07
2017-10-18T14:54:57.950Z,31.63
2017-10-18T14:57:25.468Z,32.20
2017-10-18T14:59:52.988Z,35.07
2017-10-18T15:02:20.505Z,32.40
2017-10-18T15:04:48.789Z,34.77
2017-10-18T15:07:16.369Z,33.33
2017-10-18T15:09:43.921Z,33.00
2017-10-18T15:12:11.482Z,32.50
2017-10-18T15:14:39.043Z,35.30
2017-10-18T15:17:06.604Z,31.40
2017-10-18T15:19:34.114Z,32.03
2017-10-18T15:22:01.718Z,35.60
2017-10-18T15:24:29.237Z,32.90
2017-10-18T15:26:56.769Z,29.77
2017-10-18T15:29:24.301Z,32.20
2017-10-18T15:31:51.819Z,36.00
2017-10-18T15:34:20.863Z,35.00
2017-10-18T15:36:48.385Z,35.17
2017-10-18T15:39:15.924Z,36.23
2017-10-18T15:41:43.427Z,34.90
2017-10-18T15:44:11.729Z,34.10
2017-10-18T15:46:39.309Z,34.63
2017-10-18T15:49:06.844Z,32.33
2017-10-18T15:51:34.356Z,32.80
2017-10-18T15:54:01.894Z,32.87
2017-10-18T15:56:29.415Z,34.83
2017-10-18T15:58:56.934Z,35.30
2017-10-18T16:01:25.213Z,32.97
2017-10-18T16:03:52.755Z,33.53
2017-10-18T16:06:20.324Z,32.87
2017-10-18T16:08:47.838Z,34.80
2017-10-18T16:11:15.419Z,35.03
2017-10-18T16:13:42.965Z,34.77
2017-10-18T16:16:10.498Z,33.87
2017-10-18T16:18:38.829Z,35.90
2017-10-18T16:21:06.413Z,35.20
2017-10-18T16:23:34.749Z,37.03
2017-10-18T16:26:02.338Z,34.67
2017-10-18T16:28:29.860Z,34.87
2017-10-18T16:30:57.425Z,38.30
2017-10-18T16:33:24.967Z,36.57
2017-10-18T16:35:53.310Z,35.23
2017-10-18T16:38:20.917Z,39.80
2017-10-18T16:40:48.503Z,34.67
2017-10-18T16:43:16.031Z,35.67
2017-10-18T16:45:43.555Z,36.43
2017-10-18T16:48:11.870Z,36.70
2017-10-18T16:50:40.163Z,35.97
2017-10-18T16:53:07.693Z,36.63
2017-10-18T16:55:36.025Z,34.73
2017-10-18T16:58:03.581Z,37.83
2017-10-18T17:00:31.106Z,34.70
2017-10-18T17:02:59.444Z,38.17
2017-10-18T17:05:26.964Z,37.10
2017-10-18T17:07:54.495Z,40.57
2017-10-18T17:10:22.770Z,43.93
2017-10-18T17:12:51.088Z,47.67
2017-10-18T17:15:18.599Z,43.47
2017-10-18T17:17:46.119Z,39.20
2017-10-18T17:20:13.631Z,42.27
2017-10-18T17:22:41.918Z,44.80
2017-10-18T17:25:10.306Z,43.07
2017-10-18T17:27:37.839Z,42.80
2017-10-18T17:30:06.173Z,70.97
2017-10-18T17:32:33.719Z,48.50
2017-10-18T17:35:01.278Z,48.07
2017-10-18T17:37:28.841Z,47.97
2017-10-18T17:39:56.415Z,44.00
2017-10-18T17:42:23.935Z,43.43
2017-10-18T17:44:52.239Z,44.20
2017-10-18T17:47:19.775Z,46.97
2017-10-18T17:49:48.111Z,41.53
2017-10-18T17:52:15.644Z,43.67
2017-10-18T17:54:43.202Z,42.60
2017-10-18T17:57:10.723Z,42.07
2017-10-18T17:59:39.097Z,41.87
2017-10-18T18:02:06.646Z,42.20
2017-10-18T18:04:34.255Z,39.60
2017-10-18T18:07:01.820Z,41.20
2017-10-18T18:09:29.337Z,40.60
2017-10-18T18:11:56.995Z,45.83
2017-10-18T18:14:26.247Z,44.30
2017-10-18T18:16:53.866Z,43.33
2017-10-18T18:19:21.430Z,43.57
2017-10-18T18:21:49.757Z,38.87
2017-10-18T18:24:17.386Z,40.97
2017-10-18T18:26:45.749Z,40.83
2017-10-18T18:29:14.162Z,39.40
2017-10-18T18:31:41.818Z,41.47
2017-10-18T18:34:09.547Z,41.63
2017-10-18T18:36:37.326Z,39.83
2017-10-18T18:39:05.892Z,39.73
2017-10-18T18:41:34.322Z,36.07
2017-10-18T18:44:02.089Z,36.73
2017-10-18T18:46:29.710Z,35.77
2017-10-18T18:48:57.367Z,35.30
2017-10-18T18:51:25.758Z,35.30
2017-10-18T18:53:54.179Z,35.50
2017-10-18T18:56:21.831Z,34.80
2017-10-18T18:58:49.387Z,35.03
2017-10-18T19:01:16.948Z,34.70
2017-10-18T19:03:44.636Z,34.43
2017-10-18T19:06:12.162Z,33.90
2017-10-18T19:08:39.698Z,34.73
2017-10-18T19:11:08.000Z,36.27
2017-10-18T19:13:36.308Z,34.80
2017-10-18T19:16:03.848Z,35.40
2017-10-18T19:18:31.360Z,34.13
2017-10-18T19:20:58.883Z,37.73
2017-10-18T19:23:26.405Z,34.10
2017-10-18T19:25:54.725Z,30.70
2017-10-18T19:28:22.264Z,35.03
2017-10-18T19:30:49.774Z,34.07
2017-10-18T19:33:17.358Z,35.53
2017-10-18T19:35:44.975Z,32.70
2017-10-18T19:38:12.532Z,37.80
2017-10-18T19:40:40.037Z,34.10
2017-10-18T19:43:08.323Z,35.27
2017-10-18T19:45:36.640Z,32.37
2017-10-18T19:48:04.170Z,33.03
2017-10-18T19:50:32.454Z,38.37
2017-10-18T19:53:00.742Z,37.20
2017-10-18T19:55:28.280Z,34.20
2017-10-18T19:57:56.592Z,36.10
2017-10-18T20:00:24.149Z,35.83
2017-10-18T20:02:51.663Z,34.50
2017-10-18T20:05:19.220Z,36.50
2017-10-18T20:07:46.844Z,36.27
2017-10-18T20:10:14.419Z,36.10
2017-10-18T20:12:41.943Z,34.97
2017-10-18T20:15:09.473Z,34.30
2017-10-18T20:17:37.006Z,35.93
2017-10-18T20:20:04.544Z,34.97
2017-10-18T20:22:32.207Z,34.43
2017-10-18T20:24:59.748Z,34.50
2017-10-18T20:27:27.276Z,34.93
2017-10-18T20:29:54.819Z,37.80
2017-10-18T20:32:22.359Z,32.47
2017-10-18T20:34:49.901Z,35.33
2017-10-18T20:37:17.491Z,32.40
2017-10-18T20:39:45.024Z,32.10
2017-10-18T20:42:12.592Z,34.20
2017-10-18T20:44:40.115Z,32.67
2017-10-18T20:47:09.905Z,31.50
2017-10-18T20:49:37.481Z,30.63
2017-10-18T20:52:05.787Z,32.47
2017-10-18T20:54:33.298Z,30.03
2017-10-18T20:57:00.866Z,33.93
2017-10-18T20:59:28.477Z,34.10
2017-10-18T21:01:56.039Z,32.47
2017-10-18T21:04:23.592Z,34.37
2017-10-18T21:06:51.207Z,32.17
2017-10-18T21:09:18.747Z,29.87
2017-10-18T21:11:46.319Z,29.93
2017-10-18T21:14:13.848Z,33.10
2017-10-18T21:16:41.450Z,31.47
2017-10-18T21:19:08.984Z,31.13
2017-10-18T21:21:36.560Z,30.47
2017-10-18T21:24:04.137Z,31.57
2017-10-18T21:26:31.660Z,30.23
2017-10-18T21:28:59.266Z,32.07
2017-10-18T21:31:27.691Z,30.50
2017-10-18T21:33:55.284Z,30.37
2017-10-18T21:36:22.840Z,30.93
2017-10-18T21:38:50.370Z,31.20
2017-10-18T21:41:17.899Z,30.97
2017-10-18T21:43:46.263Z,33.07
2017-10-18T21:46:13.818Z,32.70
2017-10-18T21:48:41.439Z,30.60
2017-10-18T21:51:08.979Z,32.27
2017-10-18T21:53:36.552Z,31.73
2017-10-18T21:56:04.115Z,31.67
2017-10-18T21:58:31.760Z,31.27
2017-10-18T22:00:59.336Z,29.90
2017-10-18T22:03:26.902Z,30.13
2017-10-18T22:05:54.510Z,30.70
2017-10-18T22:08:22.158Z,35.70
2017-10-18T22:10:49.726Z,37.47
2017-10-18T22:13:17.261Z,38.77
2017-10-18T22:15:44.850Z,38.77
2017-10-18T22:18:12.484Z,37.23
2017-10-18T22:20:40.036Z,40.50
2017-10-18T22:23:07.553Z,39.97
2017-10-18T22:25:35.909Z,39.33
2017-10-18T22:28:03.477Z,43.00
2017-10-18T22:30:31.011Z,40.80
2017-10-18T22:32:58.561Z,43.23
2017-10-18T22:35:26.085Z,46.10
2017-10-18T22:37:54.402Z,45.60
2017-10-18T22:40:22.001Z,46.60
2017-10-18T22:42:49.619Z,42.53
2017-10-18T22:45:17.155Z,44.17
2017-10-18T22:47:44.686Z,51.20
2017-10-18T22:50:13.764Z,42.70
2017-10-18T22:52:41.318Z,36.60
2017-10-18T22:55:08.887Z,41.80
2017-10-18T22:57:36.543Z,39.23
2017-10-18T23:00:04.125Z,35.03
2017-10-18T23:02:31.746Z,35.73
2017-10-18T23:04:59.284Z,38.30
2017-10-18T23:07:26.848Z,40.50
2017-10-18T23:09:54.411Z,33.90
2017-10-18T23:12:21.957Z,33.13
2017-10-18T23:14:50.239Z,37.10
2017-10-18T23:17:17.857Z,39.90
2017-10-18T23:19:45.438Z,44.93
2017-10-18T23:22:13.845Z,36.70
2017-10-18T23:24:41.399Z,40.97
2017-10-18T23:27:09.023Z,42.57
2017-10-18T23:29:36.539Z,31.07
2017-10-18T23:32:04.111Z,31.37
2017-10-18T23:34:31.686Z,39.73
2017-10-18T23:36:59.259Z,39.10
2017-10-18T23:39:26.787Z,34.63
2017-10-18T23:41:54.365Z,35.77
2017-10-18T23:44:21.952Z,36.13
2017-10-18T23:46:49.518Z,35.03
2017-10-18T23:49:17.055Z,31.67
2017-10-18T23:51:44.779Z,29.90
2017-10-18T23:54:12.405Z,33.63
2017-10-18T23:56:40.759Z,32.10
2017-10-18T23:59:08.269Z,35.17
